Time;durP1;ratioP1;P1;durP2;ratioP2;P2;SDS_P1;SDS_P2;PMS_P1;PMS_P2;Temp;Humidity;BMP_temperature;BMP_pressure;BME280_temperature;BME280_humidity;BME280_pressure;Samples;Min_cycle;Max_cycle;Signal;HPM_P1;HPM_P2
2022/09/16 00:00:00;;;;;;;;;;;12.30;99.90;;;;;;5047494;28;20468;-77
2022/09/16 00:02:26;;;;;;;;;;;12.30;99.90;;;;;;5036743;28;19920;-77
2022/09/16 00:04:52;;;;;;;;;;;12.30;99.90;;;;;;5045944;28;19954;-77
2022/09/16 00:07:19;;;;;;;;;;;12.30;99.90;;;;;;5044641;28;20320;-77
2022/09/16 00:09:44;;;;;;;;;;;12.30;99.90;;;;;;5048675;28;20365;-78
2022/09/16 00:12:10;;;;;;;;;;;12.30;99.90;;;;;;5048000;28;19935;-78
2022/09/16 00:14:35;;;;;;;;;;;12.30;99.90;;;;;;5037704;28;19916;-77
2022/09/16 00:17:01;;;;;;;;;;;12.40;99.90;;;;;;5034594;28;19917;-77
2022/09/16 00:19:26;;;;;;;;;;;12.50;99.90;;;;;;5051358;28;20273;-77
2022/09/16 00:21:52;;;;;;;;;;;12.50;99.90;;;;;;5041182;28;19966;-77
2022/09/16 00:24:17;;;;;;;;;;;12.60;99.90;;;;;;5037432;28;19913;-77
2022/09/16 00:26:43;;;;;;;;;;;12.70;99.90;;;;;;5045767;28;19996;-77
2022/09/16 00:29:08;;;;;;;;;;;12.60;99.90;;;;;;5047065;28;19908;-78
2022/09/16 00:31:34;;;;;;;;;;;12.70;99.90;;;;;;5042005;28;19912;-78
2022/09/16 00:34:00;;;;;;;;;;;12.80;99.90;;;;;;5051194;28;19922;-78
2022/09/16 00:36:25;;;;;;;;;;;12.90;99.90;;;;;;5051074;28;19974;-78
2022/09/16 00:38:51;;;;;;;;;;;12.80;99.90;;;;;;5050151;28;19919;-77
2022/09/16 00:41:18;;;;;;;;;;;12.90;99.90;;;;;;5051003;28;19920;-77
2022/09/16 00:43:46;;;;;;;;;;;12.90;99.90;;;;;;5039082;28;19916;-77
2022/09/16 00:46:11;;;;;;;;;;;12.90;99.90;;;;;;5049301;28;20020;-78
2022/09/16 00:48:37;;;;;;;;;;;12.80;99.90;;;;;;5041290;28;20347;-77
2022/09/16 00:51:04;;;;;;;;;;;12.70;99.90;;;;;;5051217;28;20310;-77
2022/09/16 00:53:36;;;;;;;;;;;12.70;99.90;;;;;;5038374;28;19913;-77
2022/09/16 00:56:04;;;;;;;;;;;12.70;99.90;;;;;;5045848;28;20406;-77
2022/09/16 00:58:36;;;;;;;;;;;12.70;99.90;;;;;;5048139;28;19913;-78
2022/09/16 01:01:04;;;;;;;;;;;12.60;99.90;;;;;;5050188;28;20421;-77
2022/09/16 01:03:30;;;;;;;;;;;12.60;99.90;;;;;;5047672;28;19912;-77
2022/09/16 01:05:56;;;;;;;;;;;12.50;99.90;;;;;;5059636;28;19913;-77
2022/09/16 01:08:21;;;;;;;;;;;12.40;99.90;;;;;;5048650;28;19955;-77
2022/09/16 01:10:47;;;;;;;;;;;12.40;99.90;;;;;;5044036;28;20277;-77
2022/09/16 01:13:12;;;;;;;;;;;12.40;99.90;;;;;;5040909;28;20348;-77
2022/09/16 01:15:47;;;;;;;;;;;12.40;99.90;;;;;;5043934;28;19920;-77
2022/09/16 01:18:22;;;;;;;;;;;12.30;99.90;;;;;;5043620;28;19967;-77
2022/09/16 01:20:50;;;;;;;;;;;12.30;99.90;;;;;;5045265;28;20298;-78
2022/09/16 01:23:35;;;;;;;;;;;12.30;99.90;;;;;;5033495;28;19913;-77
2022/09/16 01:26:29;;;;;;;;;;;12.20;99.90;;;;;;5040560;28;19912;-78
2022/09/16 01:28:58;;;;;;;;;;;12.20;99.90;;;;;;5058129;28;19986;-78
2022/09/16 01:31:34;;;;;;;;;;;12.20;99.90;;;;;;5044783;28;19928;-77
2022/09/16 01:34:08;;;;;;;;;;;12.20;99.90;;;;;;5044843;28;19908;-77
2022/09/16 01:36:39;;;;;;;;;;;12.10;99.90;;;;;;5041766;28;20025;-78
2022/09/16 01:39:15;;;;;;;;;;;12.10;99.90;;;;;;5029146;28;20364;-78
2022/09/16 01:41:40;;;;;;;;;;;12.20;99.90;;;;;;5047008;28;20027;-78
2022/09/16 01:44:12;;;;;;;;;;;12.20;99.90;;;;;;5045272;28;20063;-78
2022/09/16 01:46:48;;;;;;;;;;;12.20;99.90;;;;;;5044315;28;19917;-78
2022/09/16 01:49:13;;;;;;;;;;;12.20;99.90;;;;;;5046319;28;20292;-77
2022/09/16 01:51:49;;;;;;;;;;;12.20;99.90;;;;;;5046532;28;19920;-78
2022/09/16 01:54:25;;;;;;;;;;;12.30;99.90;;;;;;5043710;28;19959;-78
2022/09/16 01:57:02;;;;;;;;;;;12.20;99.90;;;;;;5047526;28;19919;-78
2022/09/16 01:59:42;;;;;;;;;;;12.30;99.90;;;;;;5045360;28;20571;-78
2022/09/16 02:02:14;;;;;;;;;;;12.30;99.90;;;;;;5041638;28;19917;-77
2022/09/16 02:04:43;;;;;;;;;;;12.30;99.90;;;;;;5048303;28;19920;-78
2022/09/16 02:07:10;;;;;;;;;;;12.30;99.90;;;;;;5046005;28;19952;-77
2022/09/16 02:09:37;;;;;;;;;;;12.20;99.90;;;;;;5049668;28;19916;-77
2022/09/16 02:12:05;;;;;;;;;;;12.30;99.90;;;;;;5048260;28;19909;-78
2022/09/16 02:14:34;;;;;;;;;;;12.20;99.90;;;;;;5042334;28;20321;-77
2022/09/16 02:17:19;;;;;;;;;;;12.30;99.90;;;;;;5049140;28;20690;-77
2022/09/16 02:19:48;;;;;;;;;;;12.30;99.90;;;;;;5045843;28;20003;-78
2022/09/16 02:22:19;;;;;;;;;;;12.40;99.90;;;;;;5036243;28;19917;-78
2022/09/16 02:24:46;;;;;;;;;;;12.40;99.90;;;;;;5037885;28;19935;-78
2022/09/16 02:27:14;;;;;;;;;;;12.40;99.90;;;;;;5049151;28;19912;-76
2022/09/16 02:29:45;;;;;;;;;;;12.40;99.90;;;;;;5041629;28;20397;-78
2022/09/16 02:32:11;;;;;;;;;;;12.40;99.90;;;;;;5036710;28;19969;-77
2022/09/16 02:34:39;;;;;;;;;;;12.40;99.90;;;;;;5038802;28;19917;-77
2022/09/16 02:37:10;;;;;;;;;;;12.40;99.90;;;;;;5045224;28;20296;-77
2022/09/16 02:39:38;;;;;;;;;;;12.50;99.90;;;;;;5043173;28;20333;-78
2022/09/16 02:42:04;;;;;;;;;;;12.50;99.90;;;;;;5037200;28;19921;-77
2022/09/16 02:44:29;;;;;;;;;;;12.50;99.90;;;;;;5049157;28;19962;-77
2022/09/16 02:47:10;;;;;;;;;;;12.50;99.90;;;;;;5032704;28;20327;-77
2022/09/16 02:49:51;;;;;;;;;;;12.60;99.90;;;;;;5045607;28;19913;-77
2022/09/16 02:52:23;;;;;;;;;;;12.60;99.90;;;;;;5047190;28;19994;-77
2022/09/16 02:54:52;;;;;;;;;;;12.60;99.90;;;;;;5052614;28;20342;-77
2022/09/16 02:57:18;;;;;;;;;;;12.50;99.90;;;;;;5048128;28;19913;-77
2022/09/16 02:59:43;;;;;;;;;;;12.50;99.90;;;;;;5044705;28;19909;-77
2022/09/16 03:02:09;;;;;;;;;;;12.50;99.90;;;;;;5036004;28;19913;-76
2022/09/16 03:04:35;;;;;;;;;;;12.50;99.90;;;;;;5025467;28;20390;-77
2022/09/16 03:07:02;;;;;;;;;;;12.50;99.90;;;;;;5025258;28;19925;-77
2022/09/16 03:09:28;;;;;;;;;;;12.50;99.90;;;;;;5025845;28;19909;-76
2022/09/16 03:12:06;;;;;;;;;;;12.50;99.90;;;;;;5037915;28;20014;-76
2022/09/16 03:14:47;;;;;;;;;;;12.50;99.90;;;;;;5027520;28;19917;-76
2022/09/16 03:17:31;;;;;;;;;;;12.50;99.90;;;;;;5044104;28;19959;-77
2022/09/16 03:20:05;;;;;;;;;;;12.60;99.90;;;;;;5039329;28;20175;-76
2022/09/16 03:22:41;;;;;;;;;;;12.50;99.90;;;;;;5029714;28;19909;-77
2022/09/16 03:25:15;;;;;;;;;;;12.50;99.90;;;;;;5024332;28;19916;-77
2022/09/16 03:27:50;;;;;;;;;;;12.50;99.90;;;;;;5029442;28;20288;-76
2022/09/16 03:30:15;;;;;;;;;;;12.50;99.90;;;;;;5023146;28;20265;-77
2022/09/16 03:33:03;;;;;;;;;;;12.60;99.90;;;;;;5041929;28;19913;-77
2022/09/16 03:35:32;;;;;;;;;;;12.60;99.90;;;;;;5050669;28;19913;-77
2022/09/16 03:37:58;;;;;;;;;;;12.60;99.90;;;;;;5042672;28;20384;-76
2022/09/16 03:40:24;;;;;;;;;;;12.60;99.90;;;;;;5042387;28;19913;-77
2022/09/16 03:42:49;;;;;;;;;;;12.60;99.90;;;;;;5054055;28;19927;-76
2022/09/16 03:45:16;;;;;;;;;;;12.60;99.90;;;;;;5045640;28;20003;-77
2022/09/16 03:47:43;;;;;;;;;;;12.60;99.90;;;;;;5047826;28;20411;-77
2022/09/16 03:50:09;;;;;;;;;;;12.70;99.90;;;;;;5051297;28;20380;-77
2022/09/16 03:52:34;;;;;;;;;;;12.60;99.90;;;;;;5040622;28;19944;-77
2022/09/16 03:54:59;;;;;;;;;;;12.60;99.90;;;;;;5049358;28;21197;-77
2022/09/16 03:57:27;;;;;;;;;;;12.70;99.90;;;;;;5042574;28;19955;-76
2022/09/16 03:59:52;;;;;;;;;;;12.70;99.90;;;;;;5051644;28;19920;-77
2022/09/16 04:02:18;;;;;;;;;;;12.70;99.90;;;;;;5044971;28;19947;-77
2022/09/16 04:04:44;;;;;;;;;;;12.70;99.90;;;;;;5051480;28;19913;-77
2022/09/16 04:07:09;;;;;;;;;;;12.70;99.90;;;;;;5051506;28;19913;-77
2022/09/16 04:09:36;;;;;;;;;;;12.70;99.90;;;;;;5051713;28;19967;-77
2022/09/16 04:12:02;;;;;;;;;;;12.70;99.90;;;;;;5048058;28;19962;-77
2022/09/16 04:14:28;;;;;;;;;;;12.70;99.90;;;;;;5047600;28;19919;-77
2022/09/16 04:16:53;;;;;;;;;;;12.70;99.90;;;;;;5046335;28;20694;-77
2022/09/16 04:19:19;;;;;;;;;;;12.70;99.90;;;;;;5049549;28;19916;-78
2022/09/16 04:21:44;;;;;;;;;;;12.70;99.90;;;;;;5048211;28;19944;-77
2022/09/16 04:24:10;;;;;;;;;;;12.60;99.90;;;;;;5048212;28;19917;-78
2022/09/16 04:26:36;;;;;;;;;;;12.70;99.90;;;;;;5046757;28;19919;-77
2022/09/16 04:29:01;;;;;;;;;;;12.70;99.90;;;;;;5048163;28;19917;-78
2022/09/16 04:31:27;;;;;;;;;;;12.70;99.90;;;;;;5036045;28;20385;-77
2022/09/16 04:33:52;;;;;;;;;;;12.70;99.90;;;;;;5046511;28;19955;-78
2022/09/16 04:36:19;;;;;;;;;;;12.70;99.90;;;;;;5042532;28;20015;-78
2022/09/16 04:38:46;;;;;;;;;;;12.70;99.90;;;;;;5039819;28;20451;-78
2022/09/16 04:41:13;;;;;;;;;;;12.70;99.90;;;;;;5045965;28;19920;-80
2022/09/16 04:43:39;;;;;;;;;;;12.70;99.90;;;;;;5032389;28;20388;-77
2022/09/16 04:46:05;;;;;;;;;;;12.70;99.90;;;;;;5037641;28;19916;-77
2022/09/16 04:48:31;;;;;;;;;;;12.70;99.90;;;;;;5044076;28;19916;-77
2022/09/16 04:51:01;;;;;;;;;;;12.70;99.90;;;;;;5048370;28;19923;-78
2022/09/16 04:53:26;;;;;;;;;;;12.80;99.90;;;;;;5044778;28;20389;-77
2022/09/16 04:55:52;;;;;;;;;;;12.70;99.90;;;;;;5049173;28;20097;-77
2022/09/16 04:58:17;;;;;;;;;;;12.70;99.90;;;;;;5046082;28;19913;-78
2022/09/16 05:00:43;;;;;;;;;;;12.70;99.90;;;;;;5040543;28;20368;-78
2022/09/16 05:03:09;;;;;;;;;;;12.70;99.90;;;;;;5038962;28;19992;-78
2022/09/16 05:05:35;;;;;;;;;;;12.70;99.90;;;;;;5044660;28;19916;-77
2022/09/16 05:08:00;;;;;;;;;;;12.70;99.90;;;;;;5047648;28;19963;-77
2022/09/16 05:10:27;;;;;;;;;;;12.70;99.90;;;;;;5046676;28;20419;-77
2022/09/16 05:12:53;;;;;;;;;;;12.70;99.90;;;;;;5043818;28;19909;-77
2022/09/16 05:15:19;;;;;;;;;;;12.70;99.90;;;;;;5049414;28;20411;-77
2022/09/16 05:17:45;;;;;;;;;;;12.70;99.90;;;;;;5034439;28;19920;-77
2022/09/16 05:20:11;;;;;;;;;;;12.70;99.90;;;;;;5035839;28;19919;-76
2022/09/16 05:22:37;;;;;;;;;;;12.60;99.90;;;;;;5035619;28;19916;-76
2022/09/16 05:25:02;;;;;;;;;;;12.70;99.90;;;;;;5036508;28;19943;-79
2022/09/16 05:27:32;;;;;;;;;;;12.70;99.90;;;;;;5036934;28;20399;-79
2022/09/16 05:29:57;;;;;;;;;;;12.70;99.90;;;;;;5045066;28;19917;-76
2022/09/16 05:32:22;;;;;;;;;;;12.70;99.90;;;;;;5045567;28;19994;-76
2022/09/16 05:34:49;;;;;;;;;;;12.60;99.90;;;;;;5036452;28;19919;-76
2022/09/16 05:37:15;;;;;;;;;;;12.70;99.90;;;;;;5045035;28;19920;-76
2022/09/16 05:39:42;;;;;;;;;;;12.70;99.90;;;;;;5037438;28;19913;-81
2022/09/16 05:42:08;;;;;;;;;;;12.60;99.90;;;;;;5030421;28;19929;-77
2022/09/16 05:44:33;;;;;;;;;;;12.60;99.90;;;;;;5046098;28;20333;-78
2022/09/16 05:46:59;;;;;;;;;;;12.60;99.90;;;;;;5036797;28;20031;-78
2022/09/16 05:49:25;;;;;;;;;;;12.60;99.90;;;;;;5040997;28;19919;-78
2022/09/16 05:51:51;;;;;;;;;;;12.70;99.90;;;;;;5052700;28;19988;-77
2022/09/16 05:54:19;;;;;;;;;;;12.70;99.90;;;;;;5065380;28;19951;-77
2022/09/16 05:56:46;;;;;;;;;;;12.80;99.90;;;;;;5045351;28;19913;-77
2022/09/16 05:59:12;;;;;;;;;;;12.60;99.90;;;;;;5045300;28;19909;-77
2022/09/16 06:01:38;;;;;;;;;;;12.80;99.90;;;;;;5042823;28;19958;-77
2022/09/16 06:04:04;;;;;;;;;;;13.00;99.90;;;;;;5042767;28;19951;-77
2022/09/16 06:06:31;;;;;;;;;;;12.90;99.90;;;;;;5043281;28;19924;-78
2022/09/16 06:08:58;;;;;;;;;;;13.00;99.90;;;;;;5033654;28;19932;-78
2022/09/16 06:11:25;;;;;;;;;;;13.00;99.90;;;;;;5039563;28;19964;-78
2022/09/16 06:13:55;;;;;;;;;;;12.90;99.90;;;;;;5048865;28;19966;-77
2022/09/16 06:16:21;;;;;;;;;;;12.90;99.90;;;;;;5040583;28;19928;-78
2022/09/16 06:18:47;;;;;;;;;;;12.70;99.90;;;;;;5046801;28;19917;-78
2022/09/16 06:21:12;;;;;;;;;;;12.80;99.90;;;;;;5049642;28;19917;-77
2022/09/16 06:23:38;;;;;;;;;;;12.80;99.90;;;;;;5032054;28;19920;-78
2022/09/16 06:26:12;;;;;;;;;;;13.00;99.90;;;;;;5057662;28;20023;-78
2022/09/16 06:28:38;;;;;;;;;;;13.00;99.90;;;;;;5040760;28;19939;-77
2022/09/16 06:31:06;;;;;;;;;;;13.00;99.90;;;;;;5035450;28;19917;-77
2022/09/16 06:33:33;;;;;;;;;;;13.00;99.90;;;;;;5039501;28;20050;-77
2022/09/16 06:36:03;;;;;;;;;;;12.90;99.90;;;;;;5046255;28;19959;-78
2022/09/16 06:38:28;;;;;;;;;;;13.00;99.90;;;;;;5038084;28;19915;-78
2022/09/16 06:40:56;;;;;;;;;;;13.20;99.90;;;;;;5049007;28;19917;-78
2022/09/16 06:43:22;;;;;;;;;;;13.20;99.90;;;;;;5041731;28;19916;-78
2022/09/16 06:45:48;;;;;;;;;;;13.00;99.90;;;;;;5049082;28;20392;-78
2022/09/16 06:48:13;;;;;;;;;;;13.00;99.90;;;;;;5045772;28;19917;-78
2022/09/16 06:50:39;;;;;;;;;;;13.10;99.90;;;;;;5062139;28;19917;-78
2022/09/16 06:53:04;;;;;;;;;;;13.30;99.90;;;;;;5046680;28;19912;-78
2022/09/16 06:55:30;;;;;;;;;;;13.30;99.90;;;;;;5058567;28;19917;-77
2022/09/16 06:57:55;;;;;;;;;;;13.30;99.90;;;;;;5048498;28;19920;-78
2022/09/16 07:00:21;;;;;;;;;;;13.30;99.90;;;;;;5046116;28;19916;-78
2022/09/16 07:02:46;;;;;;;;;;;13.30;99.90;;;;;;5052565;28;20678;-78
2022/09/16 07:05:12;;;;;;;;;;;13.40;99.90;;;;;;5048271;28;19974;-78
2022/09/16 07:07:38;;;;;;;;;;;13.30;99.90;;;;;;5052757;28;19962;-78
2022/09/16 07:10:05;;;;;;;;;;;13.50;99.90;;;;;;5052852;28;19912;-77
2022/09/16 07:12:30;;;;;;;;;;;13.60;99.90;;;;;;5052601;28;20548;-78
2022/09/16 07:14:56;;;;;;;;;;;13.70;99.90;;;;;;5037618;28;19923;-78
2022/09/16 07:17:25;;;;;;;;;;;13.80;99.90;;;;;;5040436;28;19947;-78
2022/09/16 07:19:51;;;;;;;;;;;14.00;99.90;;;;;;5043850;28;19909;-78
2022/09/16 07:22:17;;;;;;;;;;;13.70;99.90;;;;;;5043893;28;20491;-78
2022/09/16 07:24:42;;;;;;;;;;;13.80;99.90;;;;;;5048070;28;19967;-78
2022/09/16 07:27:08;;;;;;;;;;;13.80;99.90;;;;;;5051947;28;19915;-78
2022/09/16 07:29:33;;;;;;;;;;;13.80;99.90;;;;;;5039739;28;19999;-78
2022/09/16 07:31:59;;;;;;;;;;;13.80;99.90;;;;;;5051694;28;19952;-78
2022/09/16 07:34:24;;;;;;;;;;;13.90;99.90;;;;;;5043251;28;20003;-78
2022/09/16 07:36:50;;;;;;;;;;;14.00;99.90;;;;;;5042572;28;19921;-77
2022/09/16 07:39:16;;;;;;;;;;;13.90;99.90;;;;;;5039911;28;19920;-77
2022/09/16 07:41:43;;;;;;;;;;;13.80;99.90;;;;;;5051191;28;20011;-78
2022/09/16 07:44:10;;;;;;;;;;;13.70;99.90;;;;;;5042168;28;19917;-78
2022/09/16 07:46:36;;;;;;;;;;;13.70;99.90;;;;;;5052448;28;19909;-78
2022/09/16 07:49:02;;;;;;;;;;;13.40;99.90;;;;;;5051828;28;19958;-77
2022/09/16 07:51:28;;;;;;;;;;;13.50;99.90;;;;;;5050861;28;19922;-77
2022/09/16 07:53:55;;;;;;;;;;;13.50;99.90;;;;;;5048716;28;20556;-78
2022/09/16 07:56:22;;;;;;;;;;;13.40;99.90;;;;;;5050189;28;19917;-78
2022/09/16 07:58:47;;;;;;;;;;;13.60;99.90;;;;;;5048571;28;19955;-78
2022/09/16 08:01:14;;;;;;;;;;;13.40;99.90;;;;;;5039724;28;19948;-78
2022/09/16 08:03:40;;;;;;;;;;;13.60;99.90;;;;;;5050014;28;20007;-78
2022/09/16 08:06:07;;;;;;;;;;;13.60;99.90;;;;;;5041126;28;20007;-77
2022/09/16 08:08:33;;;;;;;;;;;13.40;99.90;;;;;;5042103;28;19944;-78
2022/09/16 08:10:59;;;;;;;;;;;13.50;99.90;;;;;;5048952;28;20408;-77
2022/09/16 08:13:26;;;;;;;;;;;13.60;99.90;;;;;;5041943;28;19920;-78
2022/09/16 08:15:51;;;;;;;;;;;13.60;99.90;;;;;;5050144;28;19916;-78
2022/09/16 08:18:17;;;;;;;;;;;13.60;99.90;;;;;;5049212;28;20310;-77
2022/09/16 08:20:42;;;;;;;;;;;13.60;99.90;;;;;;5047710;28;19959;-78
2022/09/16 08:23:08;;;;;;;;;;;13.80;99.90;;;;;;5048380;28;19917;-78
2022/09/16 08:25:35;;;;;;;;;;;13.80;99.90;;;;;;5039716;28;19916;-78
2022/09/16 08:28:01;;;;;;;;;;;13.70;99.90;;;;;;5047400;28;19913;-78
2022/09/16 08:30:26;;;;;;;;;;;13.80;99.90;;;;;;5041079;28;19908;-77
2022/09/16 08:32:56;;;;;;;;;;;13.90;99.90;;;;;;5042174;28;19913;-77
2022/09/16 08:35:21;;;;;;;;;;;13.80;99.90;;;;;;5040260;28;19916;-77
2022/09/16 08:37:47;;;;;;;;;;;14.00;99.90;;;;;;5047970;28;19923;-78
2022/09/16 08:40:14;;;;;;;;;;;13.90;99.90;;;;;;5042650;28;20008;-78
2022/09/16 08:42:45;;;;;;;;;;;13.80;99.90;;;;;;5038896;28;19925;-78
2022/09/16 08:45:13;;;;;;;;;;;13.80;99.90;;;;;;5044781;28;19909;-77
2022/09/16 08:47:40;;;;;;;;;;;13.80;99.90;;;;;;5049306;28;19913;-78
2022/09/16 08:50:11;;;;;;;;;;;13.60;99.90;;;;;;5056772;28;19916;-77
2022/09/16 08:52:38;;;;;;;;;;;13.60;99.90;;;;;;5060151;28;19916;-77
2022/09/16 08:55:22;;;;;;;;;;;13.60;99.90;;;;;;5046607;28;19978;-77
2022/09/16 08:57:53;;;;;;;;;;;13.60;99.90;;;;;;5044712;28;19974;-77
2022/09/16 09:00:19;;;;;;;;;;;15.20;99.90;;;;;;5050241;28;19919;-77
2022/09/16 09:02:56;;;;;;;;;;;15.20;99.90;;;;;;5042638;28;19992;-77
2022/09/16 09:05:27;;;;;;;;;;;15.10;99.90;;;;;;5042931;28;19915;-77
2022/09/16 09:07:53;;;;;;;;;;;15.10;99.90;;;;;;5049399;28;19908;-77
2022/09/16 09:10:23;;;;;;;;;;;15.40;99.90;;;;;;5048529;28;19915;-77
2022/09/16 09:12:54;;;;;;;;;;;15.50;99.90;;;;;;5047105;28;20368;-76
2022/09/16 09:15:39;;;;;;;;;;;15.60;99.90;;;;;;5040480;28;19924;-77
2022/09/16 09:18:04;;;;;;;;;;;15.50;99.90;;;;;;5034244;28;19961;-77
2022/09/16 09:20:30;;;;;;;;;;;15.50;99.90;;;;;;5040958;28;20372;-77
2022/09/16 09:22:58;;;;;;;;;;;15.60;99.90;;;;;;5038400;28;19913;-77
2022/09/16 09:25:30;;;;;;;;;;;15.50;99.90;;;;;;5050243;28;19991;-77
2022/09/16 09:28:31;;;;;;;;;;;15.40;99.90;;;;;;5047183;28;19909;-77
2022/09/16 09:31:03;;;;;;;;;;;15.40;99.90;;;;;;5006911;28;19948;-77
2022/09/16 09:33:31;;;;;;;;;;;15.40;99.90;;;;;;5041711;28;20011;-77
2022/09/16 09:36:18;;;;;;;;;;;15.50;99.90;;;;;;5040527;28;19917;-77
2022/09/16 09:38:49;;;;;;;;;;;15.80;99.90;;;;;;5042584;28;19924;-77
2022/09/16 09:41:17;;;;;;;;;;;15.90;99.90;;;;;;5047162;28;19974;-78
2022/09/16 09:43:48;;;;;;;;;;;15.80;99.90;;;;;;5045836;28;19919;-78
2022/09/16 09:46:32;;;;;;;;;;;16.10;99.90;;;;;;5044155;28;19909;-77
2022/09/16 09:49:16;;;;;;;;;;;16.30;99.90;;;;;;5039443;28;19919;-78
2022/09/16 09:51:50;;;;;;;;;;;16.40;99.90;;;;;;5041008;28;20295;-78
2022/09/16 09:54:25;;;;;;;;;;;16.60;99.90;;;;;;5043013;28;19909;-78
2022/09/16 09:57:10;;;;;;;;;;;15.30;99.90;;;;;;5060047;28;19912;-78
2022/09/16 09:59:36;;;;;;;;;;;14.20;99.90;;;;;;5032968;28;20038;-77
2022/09/16 10:02:02;;;;;;;;;;;13.70;99.90;;;;;;5039342;28;20396;-78
2022/09/16 10:04:37;;;;;;;;;;;13.40;99.90;;;;;;5044229;28;19924;-78
2022/09/16 10:07:03;;;;;;;;;;;13.30;99.90;;;;;;5045731;28;19913;-78
2022/09/16 10:09:28;;;;;;;;;;;13.20;99.90;;;;;;5042268;28;20399;-78
2022/09/16 10:11:54;;;;;;;;;;;13.10;99.90;;;;;;5040076;28;19935;-77
2022/09/16 10:14:29;;;;;;;;;;;12.90;99.90;;;;;;5051026;28;20016;-77
2022/09/16 10:16:58;;;;;;;;;;;12.60;99.90;;;;;;5036370;28;20519;-78
2022/09/16 10:19:24;;;;;;;;;;;12.40;99.90;;;;;;5037052;28;19917;-77
2022/09/16 10:21:54;;;;;;;;;;;12.40;99.90;;;;;;5039018;28;19919;-78
2022/09/16 10:24:30;;;;;;;;;;;12.10;99.90;;;;;;5047483;28;19922;-78
2022/09/16 10:26:56;;;;;;;;;;;12.20;99.90;;;;;;5042066;28;19913;-78
2022/09/16 10:29:22;;;;;;;;;;;12.10;99.90;;;;;;5045026;28;19919;-79
2022/09/16 10:31:48;;;;;;;;;;;12.20;99.90;;;;;;5046776;28;20011;-78
2022/09/16 10:34:16;;;;;;;;;;;12.00;99.90;;;;;;5024188;28;20375;-78
2022/09/16 10:36:42;;;;;;;;;;;12.00;99.90;;;;;;5033801;28;19939;-79
2022/09/16 10:39:20;;;;;;;;;;;12.00;99.90;;;;;;5045804;28;20396;-78
2022/09/16 10:41:45;;;;;;;;;;;12.20;99.90;;;;;;5040551;28;20537;-78
2022/09/16 10:44:16;;;;;;;;;;;12.30;99.90;;;;;;5044650;28;20617;-78
2022/09/16 10:46:52;;;;;;;;;;;12.50;99.90;;;;;;5038422;28;19917;-78
2022/09/16 10:49:20;;;;;;;;;;;12.50;99.90;;;;;;5017393;28;19921;-79
2022/09/16 10:51:45;;;;;;;;;;;12.80;99.90;;;;;;5028851;28;20304;-78
2022/09/16 10:54:22;;;;;;;;;;;12.50;99.90;;;;;;5042738;28;19916;-78
2022/09/16 10:56:49;;;;;;;;;;;12.60;99.90;;;;;;5042523;28;19934;-78
2022/09/16 10:59:14;;;;;;;;;;;12.80;99.90;;;;;;5033505;28;19959;-78
2022/09/16 11:01:49;;;;;;;;;;;12.80;99.90;;;;;;5040591;28;19944;-78
2022/09/16 11:04:31;;;;;;;;;;;13.30;99.90;;;;;;5047212;28;19912;-77
2022/09/16 11:07:09;;;;;;;;;;;13.30;99.90;;;;;;5045826;28;19909;-79
2022/09/16 11:09:35;;;;;;;;;;;13.30;99.90;;;;;;5045397;28;19920;-78
2022/09/16 11:12:17;;;;;;;;;;;13.20;99.90;;;;;;5042174;28;19970;-79
2022/09/16 11:14:56;;;;;;;;;;;13.30;99.90;;;;;;5036271;28;19912;-79
2022/09/16 11:17:22;;;;;;;;;;;13.60;99.90;;;;;;5042268;28;19925;-78
2022/09/16 11:19:57;;;;;;;;;;;13.20;99.90;;;;;;5043051;28;20646;-79
2022/09/16 11:22:30;;;;;;;;;;;13.20;99.90;;;;;;5034787;28;19940;-79
2022/09/16 11:25:10;;;;;;;;;;;13.10;99.90;;;;;;5039998;28;19908;-79
2022/09/16 11:27:39;;;;;;;;;;;12.90;99.90;;;;;;5040063;28;20167;-79
2022/09/16 11:30:10;;;;;;;;;;;12.90;99.90;;;;;;5048383;28;19920;-78
2022/09/16 11:32:45;;;;;;;;;;;12.90;99.90;;;;;;5036525;28;19913;-78
2022/09/16 11:35:28;;;;;;;;;;;13.00;99.90;;;;;;5044970;28;20398;-79
2022/09/16 11:38:06;;;;;;;;;;;13.20;99.90;;;;;;5031873;28;20364;-78
2022/09/16 11:40:50;;;;;;;;;;;13.40;99.90;;;;;;5035326;28;19992;-79
2022/09/16 11:43:16;;;;;;;;;;;14.00;99.90;;;;;;5044821;28;19913;-79
2022/09/16 11:45:47;;;;;;;;;;;14.40;99.90;;;;;;5052456;28;20007;-78
2022/09/16 11:48:41;;;;;;;;;;;14.80;99.90;;;;;;5047607;28;19909;-78
2022/09/16 11:51:10;;;;;;;;;;;15.00;99.90;;;;;;5016582;28;19913;-78
2022/09/16 11:53:45;;;;;;;;;;;15.50;99.90;;;;;;5038884;28;20026;-78
2022/09/16 11:56:14;;;;;;;;;;;15.60;99.90;;;;;;5052432;28;19916;-78
2022/09/16 11:58:56;;;;;;;;;;;15.60;99.90;;;;;;5049077;28;19909;-78
2022/09/16 12:01:37;;;;;;;;;;;15.60;99.90;;;;;;5038232;28;19913;-78
2022/09/16 12:04:19;;;;;;;;;;;15.50;99.90;;;;;;5045466;28;19952;-78
2022/09/16 12:07:00;;;;;;;;;;;14.80;99.90;;;;;;5036676;28;19932;-78
2022/09/16 12:09:30;;;;;;;;;;;14.10;99.90;;;;;;5047153;28;19916;-78
2022/09/16 12:12:01;;;;;;;;;;;13.70;99.90;;;;;;5043876;28;19913;-78
2022/09/16 12:14:38;;;;;;;;;;;13.40;99.90;;;;;;5051454;28;19915;-78
2022/09/16 12:17:12;;;;;;;;;;;13.20;99.90;;;;;;5048128;28;19982;-78
2022/09/16 12:19:45;;;;;;;;;;;13.40;99.90;;;;;;5051011;28;19909;-78
2022/09/16 12:22:21;;;;;;;;;;;13.50;99.90;;;;;;5048125;28;19912;-78
2022/09/16 12:24:56;;;;;;;;;;;13.30;99.90;;;;;;5038442;28;19909;-78
2022/09/16 12:27:27;;;;;;;;;;;13.40;99.90;;;;;;5051226;28;19916;-96
2022/09/16 12:29:56;;;;;;;;;;;13.50;99.90;;;;;;5045044;28;19960;-89
2022/09/16 12:32:30;;;;;;;;;;;13.40;99.90;;;;;;5046061;28;19917;-85
2022/09/16 12:34:59;;;;;;;;;;;13.20;99.90;;;;;;5040730;28;19909;-83
2022/09/16 12:37:35;;;;;;;;;;;13.30;99.90;;;;;;5033676;28;20324;-84
2022/09/16 12:40:01;;;;;;;;;;;13.40;99.90;;;;;;5043204;28;19920;-84
2022/09/16 12:42:32;;;;;;;;;;;13.40;99.90;;;;;;5035521;28;19921;-83
2022/09/16 12:45:20;;;;;;;;;;;13.30;99.90;;;;;;5037752;28;20292;-84
2022/09/16 12:48:04;;;;;;;;;;;13.40;99.90;;;;;;5046761;28;19997;-84
2022/09/16 12:50:36;;;;;;;;;;;13.40;99.90;;;;;;5051668;28;19913;-83
2022/09/16 12:53:19;;;;;;;;;;;13.30;99.90;;;;;;5037958;28;19935;-83
2022/09/16 12:55:51;;;;;;;;;;;13.30;99.90;;;;;;5034005;28;19924;-83
2022/09/16 12:58:19;;;;;;;;;;;13.10;99.90;;;;;;5038100;28;19958;-82
2022/09/16 13:00:51;;;;;;;;;;;13.20;99.90;;;;;;5034975;28;19971;-83
2022/09/16 13:03:18;;;;;;;;;;;13.10;99.90;;;;;;5037354;28;19919;-82
2022/09/16 13:05:46;;;;;;;;;;;12.90;99.90;;;;;;5035489;28;19909;-83
2022/09/16 13:08:22;;;;;;;;;;;12.90;99.90;;;;;;5036198;28;20506;-83
2022/09/16 13:11:02;;;;;;;;;;;12.90;99.90;;;;;;5037465;28;19920;-83
2022/09/16 13:13:33;;;;;;;;;;;13.00;99.90;;;;;;5038371;28;19951;-82
2022/09/16 13:15:59;;;;;;;;;;;13.10;99.90;;;;;;5037675;28;19920;-83
2022/09/16 13:18:36;;;;;;;;;;;13.10;99.90;;;;;;5041216;28;19913;-83
2022/09/16 13:21:15;;;;;;;;;;;13.40;99.90;;;;;;5048033;28;19909;-83
2022/09/16 13:23:43;;;;;;;;;;;13.40;99.90;;;;;;5040366;28;19917;-87
2022/09/16 13:26:09;;;;;;;;;;;13.70;99.90;;;;;;5046357;28;19916;-86
2022/09/16 13:28:35;;;;;;;;;;;13.80;99.90;;;;;;5046191;28;19917;-91
2022/09/16 13:31:16;;;;;;;;;;;13.90;99.90;;;;;;5050506;28;19943;-92
2022/09/16 13:33:43;;;;;;;;;;;14.00;99.90;;;;;;5048521;28;19909;-91
2022/09/16 13:36:18;;;;;;;;;;;14.20;99.90;;;;;;5042726;28;19921;-87
2022/09/16 13:38:45;;;;;;;;;;;14.30;99.90;;;;;;5057264;28;19908;-92
2022/09/16 13:41:12;;;;;;;;;;;14.40;99.90;;;;;;5050593;28;19979;-82
2022/09/16 13:43:40;;;;;;;;;;;14.70;99.90;;;;;;5040280;28;19920;-81
2022/09/16 13:46:14;;;;;;;;;;;14.40;99.90;;;;;;5035527;28;20360;-82
2022/09/16 13:49:02;;;;;;;;;;;14.50;99.90;;;;;;5043497;28;19916;-84
2022/09/16 13:51:28;;;;;;;;;;;14.30;99.90;;;;;;5037008;28;20311;-83
2022/09/16 13:53:58;;;;;;;;;;;14.20;99.90;;;;;;5045790;28;19982;-81
2022/09/16 13:56:42;;;;;;;;;;;13.90;99.90;;;;;;5028160;28;19924;-81
2022/09/16 13:59:14;;;;;;;;;;;14.10;99.90;;;;;;5045655;28;19912;-81
2022/09/16 14:01:46;;;;;;;;;;;13.80;99.90;;;;;;5035128;28;20818;-81
2022/09/16 14:04:11;;;;;;;;;;;13.80;99.90;;;;;;5047967;28;19932;-82
2022/09/16 14:06:49;;;;;;;;;;;13.70;99.90;;;;;;5047155;28;19912;-80
2022/09/16 14:09:23;;;;;;;;;;;13.90;99.90;;;;;;5047554;28;20388;-81
2022/09/16 14:11:56;;;;;;;;;;;14.30;99.90;;;;;;5047828;28;19921;-81
2022/09/16 14:14:24;;;;;;;;;;;14.20;99.90;;;;;;5038335;28;19935;-81
2022/09/16 14:16:49;;;;;;;;;;;14.50;99.90;;;;;;5050123;28;20015;-82
2022/09/16 14:19:31;;;;;;;;;;;14.70;99.90;;;;;;5042882;28;20016;-82
2022/09/16 14:22:04;;;;;;;;;;;15.50;99.90;;;;;;5036848;28;19912;-83
2022/09/16 14:24:34;;;;;;;;;;;15.80;99.90;;;;;;5045981;28;19915;-80
2022/09/16 14:26:59;;;;;;;;;;;15.40;99.90;;;;;;5043418;28;20376;-81
2022/09/16 14:29:28;;;;;;;;;;;15.10;99.90;;;;;;5045701;28;19943;-83